createdAt,value
2022-11-28T00:01:35.906Z,7.27
2022-11-28T00:04:04.027Z,8.13
2022-11-28T00:06:32.606Z,8.00
2022-11-28T00:09:00.440Z,8.13
2022-11-28T00:11:27.826Z,8.80
2022-11-28T00:13:55.271Z,10.10
2022-11-28T00:16:23.387Z,11.90
2022-11-28T00:18:51.831Z,7.10
2022-11-28T00:21:19.084Z,11.03
2022-11-28T00:23:49.162Z,9.93
2022-11-28T00:26:18.651Z,7.80
2022-11-28T00:28:46.739Z,8.77
2022-11-28T00:31:15.165Z,9.03
2022-11-28T00:33:42.832Z,9.70
2022-11-28T00:36:10.326Z,9.60
2022-11-28T00:38:37.482Z,9.47
2022-11-28T00:41:08.321Z,9.33
2022-11-28T00:43:35.719Z,7.57
2022-11-28T00:46:03.275Z,9.50
2022-11-28T00:48:30.430Z,7.27
2022-11-28T00:51:06.019Z,6.03
2022-11-28T00:53:32.872Z,7.17
2022-11-28T00:56:00.216Z,7.13
2022-11-28T00:58:28.436Z,7.20
2022-11-28T01:00:55.840Z,8.33
2022-11-28T01:03:22.809Z,6.93
2022-11-28T01:05:50.198Z,7.03
2022-11-28T01:08:17.167Z,9.57
2022-11-28T01:10:45.878Z,4.80
2022-11-28T01:13:12.730Z,9.20
2022-11-28T01:15:42.990Z,5.47
2022-11-28T01:18:10.143Z,7.97
2022-11-28T01:20:37.916Z,5.07
2022-11-28T01:23:04.846Z,7.23
2022-11-28T01:25:32.272Z,5.60
2022-11-28T01:27:59.439Z,5.40
2022-11-28T01:30:27.013Z,5.90
2022-11-28T01:32:55.284Z,5.17
2022-11-28T01:35:22.545Z,7.00
2022-11-28T01:37:49.448Z,5.13
2022-11-28T01:40:16.812Z,6.37
2022-11-28T01:42:43.653Z,7.10
2022-11-28T01:45:16.241Z,5.27
2022-11-28T01:47:43.956Z,6.60
2022-11-28T01:50:13.500Z,6.83
2022-11-28T01:52:44.431Z,6.70
2022-11-28T01:55:14.228Z,5.27
2022-11-28T01:57:42.067Z,6.90
2022-11-28T02:00:11.832Z,8.13
2022-11-28T02:02:41.292Z,7.20
2022-11-28T02:05:09.421Z,5.10
2022-11-28T02:07:38.483Z,6.83
2022-11-28T02:10:09.539Z,5.30
2022-11-28T02:12:54.386Z,8.30
2022-11-28T02:15:34.025Z,6.50
2022-11-28T02:18:12.596Z,7.33
2022-11-28T02:20:57.192Z,5.20
2022-11-28T02:23:35.445Z,6.73
2022-11-28T02:26:35.090Z,7.30
2022-11-28T02:29:40.083Z,6.40
2022-11-28T02:32:20.160Z,7.57
2022-11-28T02:34:56.966Z,10.00
2022-11-28T02:37:30.276Z,8.47
2022-11-28T02:40:08.888Z,6.80
2022-11-28T02:42:45.811Z,7.83
2022-11-28T02:45:20.309Z,8.17
2022-11-28T02:47:54.543Z,7.67
2022-11-28T02:50:26.220Z,6.67
2022-11-28T02:52:56.507Z,8.03
2022-11-28T02:55:24.160Z,8.17
2022-11-28T02:57:53.554Z,7.63
2022-11-28T03:00:27.759Z,7.03
2022-11-28T03:03:10.838Z,8.03
2022-11-28T03:05:44.744Z,16.37
2022-11-28T03:08:28.919Z,7.80
2022-11-28T03:11:03.648Z,6.73
2022-11-28T03:13:40.283Z,5.50
2022-11-28T03:16:14.883Z,5.63
2022-11-28T03:18:50.994Z,4.73
2022-11-28T03:21:26.307Z,5.60
2022-11-28T03:23:57.563Z,4.63
2022-11-28T03:26:33.952Z,4.33
2022-11-28T03:29:06.969Z,5.37
2022-11-28T03:31:39.120Z,9.10
2022-11-28T03:34:10.627Z,7.50
2022-11-28T03:36:45.020Z,10.83
2022-11-28T03:39:16.103Z,10.93
2022-11-28T03:41:46.741Z,14.43
2022-11-28T03:44:19.219Z,11.40
2022-11-28T03:46:48.640Z,11.90
2022-11-28T03:49:24.139Z,12.60
2022-11-28T03:51:54.861Z,12.93
2022-11-28T03:54:26.434Z,11.20
2022-11-28T03:57:02.975Z,12.37
2022-11-28T03:59:34.115Z,14.30
2022-11-28T04:02:06.492Z,14.23
2022-11-28T04:04:41.537Z,15.20
2022-11-28T04:07:19.139Z,13.17
2022-11-28T04:09:51.133Z,14.73
2022-11-28T04:12:26.900Z,16.03
2022-11-28T04:14:59.006Z,16.97
2022-11-28T04:17:33.235Z,18.13
2022-11-28T04:20:05.961Z,14.60
2022-11-28T04:22:37.999Z,16.43
2022-11-28T04:25:08.287Z,15.83
2022-11-28T04:27:40.246Z,14.87
2022-11-28T04:30:09.221Z,13.10
2022-11-28T04:32:43.969Z,14.37
2022-11-28T04:35:16.825Z,15.63
2022-11-28T04:37:49.064Z,13.97
2022-11-28T04:40:18.293Z,13.77
2022-11-28T04:42:52.827Z,11.93
2022-11-28T04:45:25.409Z,12.43
2022-11-28T04:47:52.857Z,10.23
2022-11-28T04:50:23.553Z,11.60
2022-11-28T04:52:56.406Z,9.47
2022-11-28T04:55:29.439Z,11.00
2022-11-28T04:58:04.531Z,12.23
2022-11-28T05:00:34.625Z,11.23
2022-11-28T05:03:02.240Z,8.33
2022-11-28T05:05:31.030Z,9.23
2022-11-28T05:07:59.862Z,9.37
2022-11-28T05:10:27.147Z,7.83
2022-11-28T05:12:54.485Z,8.07
2022-11-28T05:15:21.396Z,7.17
2022-11-28T05:17:48.543Z,7.30
2022-11-28T05:20:15.691Z,7.33
2022-11-28T05:22:44.274Z,7.47
2022-11-28T05:25:11.231Z,6.43
2022-11-28T05:27:38.841Z,7.80
2022-11-28T05:30:07.680Z,7.57
2022-11-28T05:32:36.578Z,6.67
2022-11-28T05:35:04.841Z,9.83
2022-11-28T05:37:32.264Z,6.83
2022-11-28T05:40:00.798Z,7.53
2022-11-28T05:42:28.919Z,11.70
2022-11-28T05:44:56.220Z,7.10
2022-11-28T05:47:24.247Z,7.07
2022-11-28T05:49:51.156Z,6.40
2022-11-28T05:52:18.132Z,7.27
2022-11-28T05:54:45.064Z,5.80
2022-11-28T05:57:13.654Z,7.90
2022-11-28T05:59:40.814Z,6.53
2022-11-28T06:02:08.033Z,7.23
2022-11-28T06:04:36.480Z,9.27
2022-11-28T06:07:03.396Z,6.60
2022-11-28T06:09:30.599Z,8.77
2022-11-28T06:11:57.449Z,8.57
2022-11-28T06:14:25.996Z,8.57
2022-11-28T06:16:52.879Z,7.93
2022-11-28T06:19:20.164Z,10.23
2022-11-28T06:21:49.742Z,10.17
2022-11-28T06:24:17.063Z,10.97
2022-11-28T06:26:44.022Z,8.27
2022-11-28T06:29:10.897Z,12.17
2022-11-28T06:31:39.224Z,11.43
2022-11-28T06:34:06.521Z,10.00
2022-11-28T06:36:33.484Z,14.10
2022-11-28T06:39:00.711Z,10.53
2022-11-28T06:41:27.622Z,11.97
2022-11-28T06:43:56.540Z,12.27
2022-11-28T06:46:23.797Z,11.00
2022-11-28T06:48:53.220Z,12.80
2022-11-28T06:51:20.695Z,13.10
2022-11-28T06:53:48.344Z,10.80
2022-11-28T06:56:17.035Z,12.87
2022-11-28T06:58:45.500Z,11.93
2022-11-28T07:01:15.303Z,13.67
2022-11-28T07:03:43.779Z,11.53
2022-11-28T07:06:13.903Z,12.37
2022-11-28T07:08:41.773Z,12.60
2022-11-28T07:11:10.538Z,14.30
2022-11-28T07:13:37.968Z,16.70
2022-11-28T07:16:05.520Z,12.40
2022-11-28T07:18:33.034Z,15.07
2022-11-28T07:21:00.655Z,14.33
2022-11-28T07:23:29.424Z,12.83
2022-11-28T07:25:59.903Z,15.33
2022-11-28T07:28:27.539Z,15.63
2022-11-28T07:31:02.420Z,14.23
2022-11-28T07:33:30.463Z,15.97
2022-11-28T07:36:00.788Z,14.70
2022-11-28T07:38:29.459Z,15.63
2022-11-28T07:41:03.004Z,12.97
2022-11-28T07:43:30.494Z,15.50
2022-11-28T07:46:01.722Z,19.50
2022-11-28T07:48:29.470Z,14.50
2022-11-28T07:50:56.532Z,13.40
2022-11-28T07:53:23.953Z,14.10
2022-11-28T07:55:52.219Z,14.30
2022-11-28T07:58:21.860Z,16.77
2022-11-28T08:00:49.042Z,18.37
2022-11-28T08:03:16.762Z,15.77
2022-11-28T08:05:49.554Z,15.20
2022-11-28T08:08:17.651Z,15.30
2022-11-28T08:10:44.886Z,14.13
2022-11-28T08:13:14.001Z,18.93
2022-11-28T08:15:41.146Z,15.33
2022-11-28T08:18:08.640Z,16.37
2022-11-28T08:20:35.703Z,14.53
2022-11-28T08:23:03.055Z,16.27
2022-11-28T08:25:30.008Z,16.37
2022-11-28T08:27:57.620Z,16.27
2022-11-28T08:30:26.035Z,14.73
2022-11-28T08:32:53.402Z,17.87
2022-11-28T08:35:20.533Z,16.20
2022-11-28T08:37:47.689Z,19.10
2022-11-28T08:40:15.047Z,15.00
2022-11-28T08:42:42.430Z,15.37
2022-11-28T08:45:11.720Z,18.73
2022-11-28T08:47:39.927Z,15.37
2022-11-28T08:50:07.981Z,13.93
2022-11-28T08:52:34.940Z,20.47
2022-11-28T08:55:01.848Z,16.77
2022-11-28T08:57:29.232Z,16.07
2022-11-28T08:59:56.099Z,15.50
2022-11-28T09:02:26.134Z,17.33
2022-11-28T09:04:54.510Z,14.53
2022-11-28T09:07:21.753Z,16.80
2022-11-28T09:09:49.096Z,14.40
2022-11-28T09:12:17.160Z,14.27
2022-11-28T09:14:44.247Z,15.33
2022-11-28T09:17:12.164Z,16.43
2022-11-28T09:19:39.129Z,13.13
2022-11-28T09:22:08.657Z,12.83
2022-11-28T09:24:35.890Z,13.43
2022-11-28T09:27:03.147Z,13.67
2022-11-28T09:29:30.504Z,13.50
2022-11-28T09:31:57.554Z,11.43
2022-11-28T09:34:24.557Z,10.97
2022-11-28T09:36:51.967Z,12.20
2022-11-28T09:39:20.190Z,14.50
2022-11-28T09:42:00.120Z,16.70
2022-11-28T09:44:36.660Z,16.50
2022-11-28T09:47:08.921Z,10.20
2022-11-28T09:49:41.726Z,13.23
2022-11-28T09:52:23.610Z,12.90
2022-11-28T09:55:03.717Z,13.07
2022-11-28T09:57:36.222Z,9.80
2022-11-28T10:00:06.031Z,12.70
2022-11-28T10:02:39.720Z,10.93
2022-11-28T10:05:15.649Z,11.90
2022-11-28T10:07:56.992Z,13.70
2022-11-28T10:10:34.009Z,11.83
2022-11-28T10:13:10.840Z,12.07
2022-11-28T10:15:45.546Z,11.93
2022-11-28T10:18:28.665Z,11.57
2022-11-28T10:20:59.653Z,13.13
2022-11-28T10:23:33.190Z,14.60
2022-11-28T10:26:06.339Z,12.47
2022-11-28T10:28:36.590Z,11.10
2022-11-28T10:31:12.477Z,13.73
2022-11-28T10:33:44.012Z,10.30
2022-11-28T10:36:17.317Z,14.43
2022-11-28T10:38:44.909Z,17.80
2022-11-28T10:41:18.368Z,18.30
2022-11-28T10:43:51.860Z,13.77
2022-11-28T10:46:37.700Z,15.00
2022-11-28T10:49:17.533Z,14.87
2022-11-28T10:51:56.812Z,15.00
2022-11-28T10:54:44.268Z,15.80
2022-11-28T10:57:17.842Z,14.53
2022-11-28T11:00:00.398Z,14.13
2022-11-28T11:02:36.116Z,15.10
2022-11-28T11:05:05.533Z,12.77
2022-11-28T11:07:34.899Z,13.00
2022-11-28T11:10:14.761Z,18.17
2022-11-28T11:12:44.750Z,15.80
2022-11-28T11:15:18.207Z,11.83
2022-11-28T11:17:47.330Z,14.00
2022-11-28T11:20:34.258Z,14.20
2022-11-28T11:23:10.431Z,13.43
2022-11-28T11:25:37.884Z,13.83
2022-11-28T11:28:06.678Z,12.63
2022-11-28T11:30:38.822Z,12.50
2022-11-28T11:33:12.879Z,16.03
2022-11-28T11:35:44.892Z,14.83
2022-11-28T11:38:18.543Z,15.27
2022-11-28T11:40:45.539Z,12.53
2022-11-28T11:43:29.112Z,15.00
2022-11-28T11:46:08.068Z,16.10
2022-11-28T11:48:38.250Z,21.40
2022-11-28T11:51:06.373Z,17.10
2022-11-28T11:53:33.624Z,19.27
2022-11-28T11:56:03.503Z,15.97
2022-11-28T11:58:39.315Z,17.43
2022-11-28T12:01:06.631Z,14.33
2022-11-28T12:03:40.018Z,16.97
2022-11-28T12:06:14.742Z,15.13
2022-11-28T12:08:48.003Z,16.10
2022-11-28T12:11:19.467Z,14.67
2022-11-28T12:13:49.271Z,17.43
2022-11-28T12:16:34.704Z,12.27
2022-11-28T12:19:12.786Z,14.47
2022-11-28T12:21:49.941Z,12.63
2022-11-28T12:24:22.585Z,15.40
2022-11-28T12:26:52.415Z,15.80
2022-11-28T12:29:36.544Z,17.30
2022-11-28T12:32:17.367Z,18.07
2022-11-28T12:34:59.851Z,13.07
2022-11-28T12:38:09.919Z,12.13
2022-11-28T12:40:36.269Z,14.73
2022-11-28T12:43:18.529Z,17.53
2022-11-28T12:45:52.716Z,20.50
2022-11-28T12:48:37.292Z,16.50
2022-11-28T12:51:15.100Z,13.37
2022-11-28T12:53:57.643Z,13.40
2022-11-28T12:56:41.992Z,13.60
2022-11-28T12:59:20.060Z,14.60
2022-11-28T13:02:05.199Z,12.47
2022-11-28T13:04:54.272Z,12.77
2022-11-28T13:07:32.542Z,11.23
2022-11-28T13:10:10.723Z,12.37
2022-11-28T13:12:48.503Z,14.33
2022-11-28T13:15:23.076Z,11.00
2022-11-28T13:17:55.259Z,11.53
2022-11-28T13:20:28.813Z,13.87
2022-11-28T13:23:04.912Z,12.57
2022-11-28T13:25:38.673Z,13.80
2022-11-28T13:28:13.740Z,15.10
2022-11-28T13:30:45.650Z,15.10
2022-11-28T13:33:29.915Z,13.17
2022-11-28T13:35:58.549Z,14.97
2022-11-28T13:38:36.216Z,14.87
2022-11-28T13:41:18.127Z,14.57
2022-11-28T13:44:02.407Z,17.30
2022-11-28T13:46:30.162Z,21.30
2022-11-28T13:49:20.660Z,17.70
2022-11-28T13:51:48.456Z,13.97
2022-11-28T13:54:34.210Z,14.73
2022-11-28T13:57:10.636Z,14.53
2022-11-28T13:59:38.854Z,16.77
2022-11-28T14:02:19.274Z,14.03
2022-11-28T14:04:48.665Z,12.57
2022-11-28T14:07:24.776Z,15.17
2022-11-28T14:10:05.271Z,15.37
2022-11-28T14:12:38.368Z,20.07
2022-11-28T14:15:21.861Z,12.90
2022-11-28T14:18:01.630Z,14.20
2022-11-28T14:20:36.194Z,14.77
2022-11-28T14:23:16.871Z,18.97
2022-11-28T14:25:45.413Z,17.73
2022-11-28T14:28:22.483Z,15.77
2022-11-28T14:30:50.124Z,15.53
2022-11-28T14:33:20.860Z,15.97
2022-11-28T14:36:22.632Z,12.63
2022-11-28T14:39:15.698Z,19.70
2022-11-28T14:45:45.229Z,14.20
2022-11-28T14:48:30.365Z,15.43
2022-11-28T14:51:01.824Z,18.87
2022-11-28T14:53:50.172Z,16.33
2022-11-28T14:56:28.223Z,14.67
2022-11-28T14:59:01.875Z,15.57
2022-11-28T15:01:42.161Z,14.63
2022-11-28T15:04:33.138Z,19.90
2022-11-28T15:07:02.210Z,16.73
2022-11-28T15:09:37.900Z,19.13
2022-11-28T15:12:19.503Z,16.70
2022-11-28T15:14:52.075Z,17.97
2022-11-28T15:17:22.850Z,17.63
2022-11-28T15:19:51.226Z,22.73
2022-11-28T15:22:39.121Z,19.47
2022-11-28T15:25:20.230Z,18.47
2022-11-28T15:27:47.207Z,18.23
2022-11-28T15:30:19.479Z,24.93
2022-11-28T15:32:47.079Z,25.83
2022-11-28T15:35:17.655Z,18.17
2022-11-28T15:37:50.693Z,19.33
2022-11-28T15:40:21.989Z,19.07
2022-11-28T15:42:49.984Z,17.53
2022-11-28T15:45:24.412Z,17.03
2022-11-28T15:47:52.100Z,16.20
2022-11-28T15:50:21.561Z,17.80
2022-11-28T15:52:56.291Z,16.57
2022-11-28T15:55:26.977Z,17.83
2022-11-28T15:58:12.400Z,17.33
2022-11-28T16:00:41.990Z,18.47
2022-11-28T16:03:15.884Z,19.53
2022-11-28T16:05:44.086Z,16.30
2022-11-28T16:08:22.018Z,17.07
2022-11-28T16:10:50.850Z,16.97
2022-11-28T16:13:20.903Z,18.20
2022-11-28T16:15:50.624Z,18.00
2022-11-28T16:18:18.298Z,18.77
2022-11-28T16:20:46.511Z,23.57
2022-11-28T16:23:19.575Z,19.37
2022-11-28T16:25:58.284Z,21.63
2022-11-28T16:28:32.740Z,22.50
2022-11-28T16:30:59.840Z,19.67
2022-11-28T16:33:38.340Z,19.30
2022-11-28T16:36:19.066Z,18.53
2022-11-28T16:38:48.553Z,18.13
2022-11-28T16:41:17.932Z,19.10
2022-11-28T16:43:52.678Z,17.87
2022-11-28T16:46:21.694Z,18.33
2022-11-28T16:48:53.312Z,22.37
2022-11-28T16:51:32.724Z,21.97
2022-11-28T16:54:16.916Z,21.73
2022-11-28T16:56:44.532Z,23.80
2022-11-28T16:59:15.515Z,26.63
2022-11-28T17:01:44.117Z,27.00
2022-11-28T17:04:20.561Z,46.57
2022-11-28T17:06:47.434Z,38.50
2022-11-28T17:09:14.832Z,25.00
2022-11-28T17:11:45.301Z,25.77
2022-11-28T17:14:14.661Z,30.27
2022-11-28T17:16:42.846Z,21.80
2022-11-28T17:19:10.123Z,23.57
2022-11-28T17:21:40.002Z,28.77
2022-11-28T17:24:15.252Z,24.50
2022-11-28T17:26:42.250Z,26.80
2022-11-28T17:29:11.508Z,26.20
2022-11-28T17:31:42.077Z,27.50
2022-11-28T17:34:16.184Z,29.60
2022-11-28T17:36:43.622Z,26.10
2022-11-28T17:39:10.976Z,23.77
2022-11-28T17:41:38.774Z,26.67
2022-11-28T17:44:06.294Z,23.07
2022-11-28T17:46:33.150Z,24.93
2022-11-28T17:49:01.724Z,22.83
2022-11-28T17:51:29.099Z,23.80
2022-11-28T17:53:56.523Z,22.83
2022-11-28T17:56:23.495Z,27.40
2022-11-28T17:58:50.380Z,22.67
2022-11-28T18:01:21.116Z,27.87
2022-11-28T18:03:48.513Z,23.03
2022-11-28T18:06:18.347Z,21.43
2022-11-28T18:08:46.293Z,25.77
2022-11-28T18:11:14.754Z,23.07
2022-11-28T18:13:42.550Z,23.17
2022-11-28T18:16:10.318Z,22.30
2022-11-28T18:18:38.426Z,19.60
2022-11-28T18:21:08.610Z,27.70
2022-11-28T18:23:37.708Z,23.00
2022-11-28T18:26:07.117Z,27.20
2022-11-28T18:28:34.471Z,33.93
2022-11-28T18:31:01.308Z,27.77
2022-11-28T18:33:28.589Z,21.80
2022-11-28T18:35:55.531Z,22.97
2022-11-28T18:38:22.895Z,25.47
2022-11-28T18:40:51.143Z,22.97
2022-11-28T18:43:18.054Z,26.57
2022-11-28T18:45:44.939Z,22.93
2022-11-28T18:48:11.812Z,23.00
2022-11-28T18:50:38.899Z,38.77
2022-11-28T18:53:05.742Z,29.30
2022-11-28T18:55:32.607Z,23.63
2022-11-28T18:58:01.261Z,28.87
2022-11-28T19:00:28.377Z,26.03
2022-11-28T19:02:55.217Z,25.50
2022-11-28T19:05:22.126Z,23.50
2022-11-28T19:07:49.079Z,22.47
2022-11-28T19:10:16.219Z,23.17
2022-11-28T19:12:43.590Z,23.00
2022-11-28T19:15:12.253Z,27.00
2022-11-28T19:17:39.606Z,24.20
2022-11-28T19:20:07.862Z,24.10
2022-11-28T19:22:34.944Z,27.87
2022-11-28T19:25:02.106Z,21.30
2022-11-28T19:27:28.934Z,28.00
2022-11-28T19:29:56.076Z,31.50
2022-11-28T19:32:24.598Z,26.67
2022-11-28T19:34:53.476Z,22.17
2022-11-28T19:37:20.365Z,23.90
2022-11-28T19:39:47.316Z,29.37
2022-11-28T19:42:14.156Z,29.23
2022-11-28T19:44:41.326Z,24.60
2022-11-28T19:47:08.179Z,24.97
2022-11-28T19:49:36.426Z,25.17
2022-11-28T19:52:03.511Z,28.57
2022-11-28T19:54:30.456Z,27.30
2022-11-28T19:56:57.478Z,41.17
2022-11-28T19:59:24.496Z,54.43
2022-11-28T20:01:53.688Z,32.97
2022-11-28T20:04:20.925Z,29.60
2022-11-28T20:06:49.180Z,23.97
2022-11-28T20:09:16.700Z,24.37
2022-11-28T20:11:44.899Z,22.97
2022-11-28T20:14:14.169Z,31.50
2022-11-28T20:16:41.233Z,28.80
2022-11-28T20:19:08.285Z,23.67
2022-11-28T20:21:35.939Z,31.83
2022-11-28T20:24:07.386Z,29.00
2022-11-28T20:26:37.634Z,40.63
2022-11-28T20:29:05.385Z,42.17
2022-11-28T20:31:35.375Z,27.40
2022-11-28T20:34:02.907Z,33.73
2022-11-28T20:36:31.429Z,24.47
2022-11-28T20:38:59.696Z,34.23
2022-11-28T20:41:29.119Z,27.00
2022-11-28T20:43:56.398Z,36.27
2022-11-28T20:46:28.248Z,34.03
2022-11-28T20:48:57.038Z,28.73
2022-11-28T20:51:25.825Z,23.40
2022-11-28T20:53:53.982Z,26.03
2022-11-28T20:56:23.138Z,23.07
2022-11-28T20:58:52.626Z,26.30
2022-11-28T21:01:21.726Z,22.63
2022-11-28T21:03:51.549Z,37.23
2022-11-28T21:06:19.128Z,30.30
2022-11-28T21:08:46.395Z,27.97
2022-11-28T21:11:36.642Z,26.33
2022-11-28T21:14:04.883Z,25.67
2022-11-28T21:16:33.103Z,23.20
2022-11-28T21:19:03.847Z,20.83
2022-11-28T21:21:33.325Z,21.23
2022-11-28T21:24:02.079Z,25.73
2022-11-28T21:26:30.667Z,25.00
2022-11-28T21:29:02.016Z,21.50
2022-11-28T21:31:34.015Z,23.47
2022-11-28T21:34:01.754Z,24.60
2022-11-28T21:36:30.342Z,24.83
2022-11-28T21:38:59.429Z,22.27
2022-11-28T21:41:28.902Z,20.47
2022-11-28T21:43:55.978Z,22.80
2022-11-28T21:46:23.226Z,22.37
2022-11-28T21:48:52.123Z,22.57
2022-11-28T21:51:21.021Z,25.67
2022-11-28T21:53:48.287Z,22.87
2022-11-28T21:56:15.353Z,23.23
2022-11-28T21:58:42.276Z,21.13
2022-11-28T22:01:11.325Z,24.53
2022-11-28T22:03:39.518Z,21.90
2022-11-28T22:06:12.808Z,19.00
2022-11-28T22:08:40.067Z,20.43
2022-11-28T22:11:13.065Z,18.97
2022-11-28T22:13:42.482Z,22.30
2022-11-28T22:16:10.803Z,18.57
2022-11-28T22:18:38.352Z,22.63
2022-11-28T22:21:28.655Z,36.23
2022-11-28T22:23:56.883Z,22.10
2022-11-28T22:26:23.797Z,20.40
2022-11-28T22:28:53.950Z,20.87
2022-11-28T22:31:21.622Z,23.53
2022-11-28T22:33:50.295Z,19.90
2022-11-28T22:36:20.872Z,22.57
2022-11-28T22:38:49.272Z,22.87
2022-11-28T22:41:24.845Z,20.20
2022-11-28T22:43:56.164Z,20.27
2022-11-28T22:46:23.361Z,21.63
2022-11-28T22:48:51.779Z,21.67
2022-11-28T22:51:22.858Z,21.97
2022-11-28T22:53:53.001Z,22.03
2022-11-28T22:56:20.156Z,21.27
2022-11-28T22:58:47.780Z,19.30
2022-11-28T23:01:17.250Z,21.20
2022-11-28T23:03:45.020Z,22.30
2022-11-28T23:06:14.112Z,20.90
2022-11-28T23:08:42.780Z,22.70
2022-11-28T23:11:11.757Z,27.83
2022-11-28T23:13:39.473Z,23.00
2022-11-28T23:16:11.507Z,21.93
2022-11-28T23:18:41.263Z,23.57
2022-11-28T23:21:08.379Z,20.40
2022-11-28T23:23:36.327Z,21.50
2022-11-28T23:26:06.295Z,21.20
2022-11-28T23:28:33.680Z,19.57
2022-11-28T23:31:09.005Z,22.13
2022-11-28T23:33:36.628Z,18.50
2022-11-28T23:36:22.681Z,20.87
2022-11-28T23:38:51.913Z,20.03
2022-11-28T23:41:20.751Z,20.43
2022-11-28T23:43:48.300Z,21.67
2022-11-28T23:46:16.860Z,20.27
2022-11-28T23:48:44.677Z,19.80
2022-11-28T23:51:13.305Z,21.00
2022-11-28T23:53:41.440Z,21.47
2022-11-28T23:56:11.083Z,22.37
2022-11-28T23:58:39.981Z,19.97
